createdAt,value
2018-12-16T00:01:09.684Z,11.20
2018-12-16T00:03:38.503Z,10.03
2018-12-16T00:06:07.156Z,11.27
2018-12-16T00:08:36.066Z,11.10
2018-12-16T00:11:04.740Z,10.77
2018-12-16T00:13:33.636Z,10.57
2018-12-16T00:16:02.551Z,10.47
2018-12-16T00:18:31.539Z,10.93
2018-12-16T00:21:00.536Z,10.50
2018-12-16T00:23:29.557Z,10.50
2018-12-16T00:25:58.268Z,9.53
2018-12-16T00:28:27.194Z,11.27
2018-12-16T00:30:56.185Z,10.50
2018-12-16T00:33:25.174Z,10.27
2018-12-16T00:35:54.166Z,11.10
2018-12-16T00:38:22.842Z,10.07
2018-12-16T00:40:51.672Z,9.17
2018-12-16T00:43:20.572Z,11.40
2018-12-16T00:45:49.644Z,10.70
2018-12-16T00:48:18.435Z,10.17
2018-12-16T00:50:47.293Z,10.37
2018-12-16T00:53:16.563Z,8.43
2018-12-16T00:55:45.524Z,9.93
2018-12-16T00:58:14.485Z,9.33
2018-12-16T01:00:43.779Z,9.43
2018-12-16T01:03:12.938Z,9.83
2018-12-16T01:05:41.820Z,9.53
2018-12-16T01:08:10.515Z,8.90
2018-12-16T01:10:39.470Z,9.37
2018-12-16T01:13:08.492Z,8.20
2018-12-16T01:15:37.187Z,10.33
2018-12-16T01:18:05.764Z,8.03
2018-12-16T01:20:34.643Z,9.17
2018-12-16T01:23:03.325Z,9.80
2018-12-16T01:25:32.230Z,11.73
2018-12-16T01:28:01.297Z,10.17
2018-12-16T01:30:30.264Z,10.27
2018-12-16T01:32:59.265Z,8.57
2018-12-16T01:35:27.935Z,4.97
2018-12-16T01:37:56.809Z,8.67
2018-12-16T01:40:25.773Z,7.93
2018-12-16T01:42:54.452Z,6.93
2018-12-16T01:45:23.344Z,7.93
2018-12-16T01:47:52.031Z,8.27
2018-12-16T01:50:20.910Z,8.03
2018-12-16T01:52:50.364Z,6.97
2018-12-16T01:55:20.361Z,7.00
2018-12-16T01:57:49.320Z,8.17
2018-12-16T02:00:17.900Z,9.07
2018-12-16T02:02:47.080Z,8.67
2018-12-16T02:05:15.750Z,8.47
2018-12-16T02:07:44.817Z,8.37
2018-12-16T02:10:14.092Z,8.60
2018-12-16T02:12:42.894Z,7.37
2018-12-16T02:15:12.068Z,7.97
2018-12-16T02:17:40.763Z,9.00
2018-12-16T02:20:09.459Z,8.77
2018-12-16T02:22:38.060Z,8.80
2018-12-16T02:25:07.486Z,10.40
2018-12-16T02:27:36.547Z,7.80
2018-12-16T02:30:05.536Z,9.23
2018-12-16T02:32:34.141Z,8.90
2018-12-16T02:35:03.037Z,7.87
2018-12-16T02:37:32.333Z,6.70
2018-12-16T02:40:01.095Z,8.40
2018-12-16T02:42:29.979Z,8.03
2018-12-16T02:44:58.642Z,8.13
2018-12-16T02:47:27.901Z,8.00
2018-12-16T02:49:56.592Z,7.20
2018-12-16T02:52:25.537Z,6.63
2018-12-16T02:54:54.262Z,8.30
2018-12-16T02:57:23.148Z,7.50
2018-12-16T02:59:52.142Z,8.80
2018-12-16T03:02:21.471Z,8.23
2018-12-16T03:04:50.645Z,7.80
2018-12-16T03:07:19.743Z,7.73
2018-12-16T03:09:48.841Z,7.70
2018-12-16T03:12:17.495Z,8.17
2018-12-16T03:14:46.409Z,8.27
2018-12-16T03:17:15.722Z,7.97
2018-12-16T03:19:44.805Z,7.27
2018-12-16T03:22:13.475Z,8.27
2018-12-16T03:24:42.088Z,7.67
2018-12-16T03:27:10.671Z,7.70
2018-12-16T03:29:39.578Z,7.93
2018-12-16T03:32:08.246Z,7.90
2018-12-16T03:34:36.940Z,8.17
2018-12-16T03:37:06.246Z,8.00
2018-12-16T03:39:34.924Z,7.57
2018-12-16T03:42:03.499Z,7.83
2018-12-16T03:44:32.337Z,7.83
2018-12-16T03:47:01.212Z,7.87
2018-12-16T03:49:30.189Z,8.10
2018-12-16T03:51:59.153Z,7.23
2018-12-16T03:54:28.135Z,7.53
2018-12-16T03:56:56.847Z,6.90
2018-12-16T03:59:25.464Z,6.93
2018-12-16T04:01:57.093Z,7.73
2018-12-16T04:04:26.611Z,7.20
2018-12-16T04:06:55.423Z,6.43
2018-12-16T04:09:24.091Z,8.27
2018-12-16T04:11:53.057Z,7.87
2018-12-16T04:14:22.210Z,7.83
2018-12-16T04:16:51.180Z,7.97
2018-12-16T04:19:20.155Z,6.13
2018-12-16T04:21:49.154Z,6.93
2018-12-16T04:24:18.146Z,7.33
2018-12-16T04:26:47.123Z,7.37
2018-12-16T04:29:16.085Z,7.90
2018-12-16T04:31:45.407Z,6.33
2018-12-16T04:34:14.402Z,7.30
2018-12-16T04:36:43.498Z,6.10
2018-12-16T04:39:12.398Z,6.23
2018-12-16T04:41:41.371Z,6.80
2018-12-16T04:44:10.373Z,6.80
2018-12-16T04:46:39.621Z,6.60
2018-12-16T04:49:08.664Z,7.10
2018-12-16T04:51:37.880Z,6.43
2018-12-16T04:54:06.882Z,6.57
2018-12-16T04:56:35.539Z,7.40
2018-12-16T04:59:04.144Z,6.80
2018-12-16T05:01:32.730Z,7.43
2018-12-16T05:04:01.629Z,6.80
2018-12-16T05:06:30.609Z,7.37
2018-12-16T05:08:59.640Z,6.50
2018-12-16T05:11:28.598Z,8.17
2018-12-16T05:13:57.612Z,7.33
2018-12-16T05:16:26.600Z,6.47
2018-12-16T05:18:55.602Z,7.20
2018-12-16T05:21:25.040Z,6.97
2018-12-16T05:23:53.711Z,7.50
2018-12-16T05:26:22.575Z,6.07
2018-12-16T05:28:51.486Z,5.97
2018-12-16T05:31:20.612Z,5.20
2018-12-16T05:33:49.186Z,7.17
2018-12-16T05:36:18.128Z,6.27
2018-12-16T05:38:47.485Z,6.13
2018-12-16T05:41:16.562Z,7.13
2018-12-16T05:43:45.814Z,7.30
2018-12-16T05:46:14.786Z,7.00
2018-12-16T05:48:43.777Z,6.90
2018-12-16T05:51:12.468Z,7.97
2018-12-16T05:53:41.342Z,6.67
2018-12-16T05:56:10.353Z,6.93
2018-12-16T05:58:39.293Z,6.87
2018-12-16T06:01:08.080Z,5.07
2018-12-16T06:03:36.955Z,8.10
2018-12-16T06:06:07.446Z,7.03
2018-12-16T06:08:36.524Z,6.97
2018-12-16T06:11:05.740Z,6.63
2018-12-16T06:13:34.941Z,7.23
2018-12-16T06:16:04.085Z,7.97
2018-12-16T06:18:33.137Z,6.20
2018-12-16T06:21:02.133Z,6.83
2018-12-16T06:23:31.118Z,6.37
2018-12-16T06:26:00.449Z,7.47
2018-12-16T06:28:29.104Z,7.10
2018-12-16T06:30:58.101Z,6.73
2018-12-16T06:33:27.352Z,7.13
2018-12-16T06:35:56.331Z,7.50
2018-12-16T06:38:25.005Z,6.43
2018-12-16T06:40:53.876Z,5.80
2018-12-16T06:43:22.551Z,6.73
2018-12-16T06:45:51.578Z,6.43
2018-12-16T06:48:20.599Z,7.40
2018-12-16T06:50:49.643Z,7.17
2018-12-16T06:53:18.608Z,5.83
2018-12-16T06:55:47.719Z,6.80
2018-12-16T06:58:16.480Z,7.10
2018-12-16T07:00:45.746Z,6.77
2018-12-16T07:03:14.437Z,7.13
2018-12-16T07:05:43.328Z,6.60
2018-12-16T07:08:12.614Z,7.23
2018-12-16T07:10:41.787Z,7.23
2018-12-16T07:13:10.901Z,6.93
2018-12-16T07:15:40.283Z,7.30
2018-12-16T07:18:09.521Z,6.07
2018-12-16T07:20:38.243Z,7.13
2018-12-16T07:23:07.142Z,5.73
2018-12-16T07:25:36.291Z,7.13
2018-12-16T07:28:05.345Z,6.87
2018-12-16T07:30:34.493Z,7.33
2018-12-16T07:33:03.501Z,7.37
2018-12-16T07:35:32.252Z,7.33
2018-12-16T07:38:01.526Z,7.23
2018-12-16T07:40:30.624Z,6.63
2018-12-16T07:42:59.623Z,6.73
2018-12-16T07:45:28.906Z,7.10
2018-12-16T07:47:57.885Z,6.43
2018-12-16T07:50:26.875Z,7.63
2018-12-16T07:52:57.064Z,7.43
2018-12-16T07:55:26.297Z,7.20
2018-12-16T07:57:55.278Z,7.40
2018-12-16T08:00:24.271Z,6.53
2018-12-16T08:02:53.386Z,6.57
2018-12-16T08:05:22.837Z,5.97
2018-12-16T08:07:51.884Z,7.00
2018-12-16T08:10:20.856Z,6.97
2018-12-16T08:12:49.884Z,6.43
2018-12-16T08:15:18.547Z,6.77
2018-12-16T08:17:47.194Z,7.87
2018-12-16T08:20:15.769Z,7.23
2018-12-16T08:22:44.732Z,7.43
2018-12-16T08:25:13.712Z,6.83
2018-12-16T08:27:42.708Z,6.53
2018-12-16T08:30:11.855Z,6.63
2018-12-16T08:32:40.550Z,7.73
2018-12-16T08:35:09.872Z,7.30
2018-12-16T08:37:38.884Z,7.00
2018-12-16T08:40:07.570Z,6.67
2018-12-16T08:42:36.160Z,7.23
2018-12-16T08:45:06.512Z,7.70
2018-12-16T08:47:35.570Z,7.50
2018-12-16T08:50:04.784Z,7.23
2018-12-16T08:52:33.751Z,8.10
2018-12-16T08:55:02.539Z,6.57
2018-12-16T08:57:31.610Z,7.37
2018-12-16T09:00:00.666Z,8.43
2018-12-16T09:02:29.664Z,6.97
2018-12-16T09:04:58.366Z,7.63
2018-12-16T09:07:27.080Z,8.03
2018-12-16T09:09:55.957Z,7.70
2018-12-16T09:12:24.960Z,7.07
2018-12-16T09:14:53.960Z,6.83
2018-12-16T09:17:22.740Z,6.93
2018-12-16T09:19:51.316Z,7.37
2018-12-16T09:22:20.712Z,6.73
2018-12-16T09:24:49.703Z,5.43
2018-12-16T09:27:18.683Z,7.93
2018-12-16T09:29:47.692Z,7.50
2018-12-16T09:32:16.392Z,7.50
2018-12-16T09:34:45.233Z,7.10
2018-12-16T09:37:14.113Z,8.27
2018-12-16T09:39:43.260Z,7.00
2018-12-16T09:42:12.247Z,7.87
2018-12-16T09:44:41.546Z,7.87
2018-12-16T09:47:10.529Z,7.77
2018-12-16T09:49:39.506Z,8.23
2018-12-16T09:52:08.511Z,8.13
2018-12-16T09:54:44.039Z,7.17
2018-12-16T09:57:08.111Z,8.23
2018-12-16T09:59:36.914Z,7.77
2018-12-16T10:02:05.856Z,7.97
2018-12-16T10:04:34.818Z,8.27
2018-12-16T10:07:03.914Z,7.50
2018-12-16T10:09:33.170Z,7.80
2018-12-16T10:12:02.165Z,7.77
2018-12-16T10:14:31.192Z,7.90
2018-12-16T10:17:00.239Z,8.37
2018-12-16T10:19:29.241Z,7.80
2018-12-16T10:21:58.223Z,7.83
2018-12-16T10:24:27.259Z,7.30
2018-12-16T10:26:57.458Z,8.07
2018-12-16T10:29:26.440Z,7.80
2018-12-16T10:31:55.484Z,8.83
2018-12-16T10:34:24.484Z,8.13
2018-12-16T10:36:53.180Z,8.57
2018-12-16T10:39:22.333Z,7.93
2018-12-16T10:41:51.460Z,8.03
2018-12-16T10:44:20.510Z,9.37
2018-12-16T10:46:49.498Z,7.77
2018-12-16T10:49:18.817Z,9.23
2018-12-16T10:51:47.620Z,9.17
2018-12-16T10:54:16.320Z,9.13
2018-12-16T10:56:45.241Z,9.80
2018-12-16T10:59:14.228Z,9.47
2018-12-16T11:01:43.268Z,8.80
2018-12-16T11:04:13.646Z,9.00
2018-12-16T11:06:42.364Z,9.70
2018-12-16T11:09:10.935Z,9.43
2018-12-16T11:11:39.852Z,10.97
2018-12-16T11:14:08.516Z,9.03
2018-12-16T11:16:37.421Z,9.43
2018-12-16T11:19:06.386Z,9.93
2018-12-16T11:21:35.091Z,9.83
2018-12-16T11:24:04.108Z,9.47
2018-12-16T11:26:33.577Z,9.80
2018-12-16T11:29:02.557Z,9.87
2018-12-16T11:31:31.781Z,9.67
2018-12-16T11:34:00.461Z,8.83
2018-12-16T11:36:29.040Z,9.37
2018-12-16T11:38:57.957Z,9.77
2018-12-16T11:41:26.879Z,10.80
2018-12-16T11:43:55.544Z,9.00
2018-12-16T11:46:24.160Z,9.80
2018-12-16T11:48:53.177Z,9.70
2018-12-16T11:51:22.166Z,10.00
2018-12-16T11:53:51.152Z,9.77
2018-12-16T11:56:20.201Z,10.17
2018-12-16T11:58:48.889Z,10.27
2018-12-16T12:01:17.980Z,9.40
2018-12-16T12:03:46.662Z,10.03
2018-12-16T12:06:15.354Z,10.10
2018-12-16T12:08:43.978Z,10.63
2018-12-16T12:11:12.845Z,9.80
2018-12-16T12:13:41.564Z,11.10
2018-12-16T12:16:10.459Z,10.80
2018-12-16T12:18:39.746Z,9.90
2018-12-16T12:21:08.739Z,10.17
2018-12-16T12:23:37.512Z,11.10
2018-12-16T12:26:06.420Z,9.90
2018-12-16T12:28:35.669Z,10.97
2018-12-16T12:31:04.953Z,9.73
2018-12-16T12:33:34.184Z,10.43
2018-12-16T12:36:03.436Z,11.17
2018-12-16T12:38:32.492Z,10.27
2018-12-16T12:41:01.587Z,9.30
2018-12-16T12:43:30.308Z,9.63
2018-12-16T12:45:58.880Z,9.37
2018-12-16T12:48:27.768Z,9.53
2018-12-16T12:50:56.991Z,8.60
2018-12-16T12:53:26.268Z,10.13
2018-12-16T12:55:55.008Z,10.40
2018-12-16T12:58:23.912Z,10.40
2018-12-16T13:00:52.887Z,11.73
2018-12-16T13:03:22.100Z,11.10
2018-12-16T13:05:50.916Z,11.13
2018-12-16T13:08:19.826Z,11.67
2018-12-16T13:10:48.806Z,9.83
2018-12-16T13:13:17.902Z,11.43
2018-12-16T13:15:46.965Z,10.63
2018-12-16T13:21:08.509Z,11.43
2018-12-16T13:23:43.212Z,12.20
2018-12-16T13:26:15.461Z,12.50
2018-12-16T13:28:55.948Z,11.60
2018-12-16T13:31:25.537Z,10.30
2018-12-16T13:33:54.969Z,9.90
2018-12-16T13:36:28.780Z,9.10
2018-12-16T13:38:59.657Z,9.77
2018-12-16T13:41:32.096Z,9.07
2018-12-16T13:44:00.857Z,9.60
2018-12-16T13:46:30.128Z,9.20
2018-12-16T13:48:58.870Z,8.90
2018-12-16T13:51:27.885Z,8.17
2018-12-16T13:53:56.690Z,9.33
2018-12-16T13:56:25.675Z,8.90
2018-12-16T13:58:54.692Z,10.75
2018-12-16T14:01:23.772Z,9.40
2018-12-16T14:03:52.825Z,7.87
2018-12-16T14:06:21.625Z,8.43
2018-12-16T14:08:51.332Z,8.13
2018-12-16T14:11:21.145Z,7.23
2018-12-16T14:13:51.626Z,7.90
2018-12-16T14:16:22.541Z,8.00
2018-12-16T14:18:53.888Z,8.23
2018-12-16T14:21:22.874Z,9.10
2018-12-16T14:23:51.981Z,8.43
2018-12-16T14:26:21.314Z,9.10
2018-12-16T14:28:50.310Z,8.50
2018-12-16T14:31:19.296Z,7.90
2018-12-16T14:33:48.289Z,8.10
2018-12-16T14:36:17.281Z,7.90
2018-12-16T14:38:46.263Z,8.10
2018-12-16T14:41:15.276Z,7.70
2018-12-16T14:43:44.634Z,7.03
2018-12-16T14:46:13.624Z,8.03
2018-12-16T14:48:42.574Z,8.03
2018-12-16T14:51:11.569Z,12.00
2018-12-16T14:53:40.543Z,12.10
2018-12-16T14:56:09.534Z,12.07
2018-12-16T14:58:38.752Z,10.13
2018-12-16T15:01:07.831Z,9.77
2018-12-16T15:03:37.147Z,10.00
2018-12-16T15:06:06.310Z,11.13
2018-12-16T15:08:35.401Z,11.37
2018-12-16T15:11:06.203Z,10.60
2018-12-16T15:13:35.051Z,11.10
2018-12-16T15:16:04.064Z,11.60
2018-12-16T15:18:33.050Z,12.47
2018-12-16T15:21:02.058Z,11.60
2018-12-16T15:23:31.035Z,11.83
2018-12-16T15:26:02.133Z,11.40
2018-12-16T15:28:30.804Z,10.60
2018-12-16T15:30:59.804Z,10.00
2018-12-16T15:33:29.056Z,10.57
2018-12-16T15:35:58.052Z,11.07
2018-12-16T15:38:27.032Z,9.67
2018-12-16T15:40:56.244Z,9.60
2018-12-16T15:43:25.201Z,10.07
2018-12-16T15:45:54.189Z,9.60
2018-12-16T15:48:23.222Z,10.33
2018-12-16T15:50:52.273Z,10.47
2018-12-16T15:53:21.268Z,10.37
2018-12-16T15:55:50.407Z,9.40
2018-12-16T15:58:19.361Z,9.30
2018-12-16T16:00:48.365Z,11.47
2018-12-16T16:03:17.461Z,10.90
2018-12-16T16:05:46.592Z,10.50
2018-12-16T16:08:16.542Z,9.87
2018-12-16T16:10:45.792Z,8.33
2018-12-16T16:13:15.052Z,8.70
2018-12-16T16:15:44.021Z,8.07
2018-12-16T16:18:12.987Z,8.03
2018-12-16T16:20:41.747Z,8.77
2018-12-16T16:23:10.758Z,8.40
2018-12-16T16:25:39.499Z,11.17
2018-12-16T16:28:08.082Z,10.60
2018-12-16T16:30:37.084Z,11.07
2018-12-16T16:33:06.200Z,11.03
2018-12-16T16:35:34.872Z,9.43
2018-12-16T16:38:04.167Z,9.47
2018-12-16T16:40:33.849Z,8.43
2018-12-16T16:43:09.340Z,9.03
2018-12-16T16:45:38.642Z,9.30
2018-12-16T16:48:07.599Z,8.93
2018-12-16T16:50:37.266Z,8.33
2018-12-16T16:53:06.237Z,8.70
2018-12-16T16:55:35.331Z,8.13
2018-12-16T16:58:04.468Z,8.93
2018-12-16T17:00:33.543Z,9.43
2018-12-16T17:03:02.223Z,9.30
2018-12-16T17:05:30.828Z,10.37
2018-12-16T17:07:59.720Z,10.17
2018-12-16T17:10:28.725Z,8.53
2018-12-16T17:12:57.437Z,8.87
2018-12-16T17:15:26.648Z,7.47
2018-12-16T17:17:56.757Z,6.90
2018-12-16T17:20:25.428Z,6.67
2018-12-16T17:22:54.060Z,7.50
2018-12-16T17:25:22.924Z,7.47
2018-12-16T17:27:51.688Z,6.83
2018-12-16T17:30:20.585Z,7.20
2018-12-16T17:32:49.590Z,6.60
2018-12-16T17:35:18.997Z,6.47
2018-12-16T17:37:47.696Z,7.47
2018-12-16T17:40:16.571Z,6.77
2018-12-16T17:42:46.298Z,6.80
2018-12-16T17:45:15.191Z,7.10
2018-12-16T17:47:44.093Z,7.20
2018-12-16T17:50:13.080Z,6.73
2018-12-16T17:52:42.045Z,7.40
2018-12-16T17:55:11.007Z,7.80
2018-12-16T17:57:40.016Z,7.17
2018-12-16T18:00:10.249Z,7.90
2018-12-16T18:02:39.537Z,7.53
2018-12-16T18:05:08.752Z,7.60
2018-12-16T18:07:37.746Z,7.63
2018-12-16T18:10:06.807Z,8.23
2018-12-16T18:12:36.071Z,8.30
2018-12-16T18:15:06.637Z,9.30
2018-12-16T18:17:38.671Z,10.77
2018-12-16T18:20:07.992Z,9.03
2018-12-16T18:22:36.872Z,9.27
2018-12-16T18:25:05.760Z,9.97
2018-12-16T18:27:34.680Z,8.07
2018-12-16T18:30:05.420Z,8.23
2018-12-16T18:32:34.416Z,8.63
2018-12-16T18:35:03.204Z,10.17
2018-12-16T18:37:32.236Z,9.50
2018-12-16T18:40:01.323Z,8.50
2018-12-16T18:42:30.325Z,8.10
2018-12-16T18:44:58.974Z,8.30
2018-12-16T18:47:28.302Z,8.25
2018-12-16T18:49:57.297Z,8.70
2018-12-16T18:52:26.316Z,8.37
2018-12-16T18:54:55.045Z,7.63
2018-12-16T18:57:24.122Z,7.47
2018-12-16T18:59:53.113Z,6.73
2018-12-16T19:02:22.242Z,7.33
2018-12-16T19:04:51.644Z,6.43
2018-12-16T19:07:20.678Z,6.47
2018-12-16T19:09:49.652Z,6.07
2018-12-16T19:12:18.625Z,5.87
2018-12-16T19:14:47.621Z,7.40
2018-12-16T19:17:17.175Z,6.60
2018-12-16T19:19:45.870Z,5.90
2018-12-16T19:22:14.786Z,6.53
2018-12-16T19:24:43.457Z,6.63
2018-12-16T19:27:12.861Z,7.93
2018-12-16T19:29:41.622Z,6.50
2018-12-16T19:32:10.809Z,6.70
2018-12-16T19:34:39.713Z,8.23
2018-12-16T19:37:09.025Z,7.57
2018-12-16T19:39:38.399Z,7.17
2018-12-16T19:42:07.364Z,6.83
2018-12-16T19:44:36.374Z,6.47
2018-12-16T19:47:05.317Z,6.10
2018-12-16T19:49:33.993Z,7.00
2018-12-16T19:52:02.922Z,6.53
2018-12-16T19:54:32.461Z,6.90
2018-12-16T19:57:05.117Z,6.67
2018-12-16T19:59:33.025Z,8.80
2018-12-16T20:02:02.740Z,12.10
2018-12-16T20:04:37.608Z,13.13
2018-12-16T20:07:07.767Z,12.43
2018-12-16T20:09:36.721Z,9.93
2018-12-16T20:12:05.941Z,9.27
2018-12-16T20:14:34.727Z,8.23
2018-12-16T20:17:03.670Z,8.17
2018-12-16T20:19:32.934Z,8.13
2018-12-16T20:22:01.608Z,7.33
2018-12-16T20:24:30.300Z,7.70
2018-12-16T20:26:59.239Z,7.67
2018-12-16T20:29:28.057Z,7.00
2018-12-16T20:31:56.954Z,6.30
2018-12-16T20:34:26.119Z,6.47
2018-12-16T20:36:55.108Z,6.07
2018-12-16T20:39:24.210Z,5.73
2018-12-16T20:41:53.293Z,7.23
2018-12-16T20:44:22.590Z,7.30
2018-12-16T20:46:51.499Z,7.40
2018-12-16T20:49:20.787Z,6.93
2018-12-16T20:51:49.826Z,7.10
2018-12-16T20:54:18.831Z,7.53
2018-12-16T20:56:47.831Z,7.17
2018-12-16T20:59:16.836Z,7.13
2018-12-16T21:01:45.500Z,6.53
2018-12-16T21:04:14.155Z,7.13
2018-12-16T21:06:43.457Z,7.20
2018-12-16T21:09:12.651Z,6.17
2018-12-16T21:11:47.135Z,7.33
2018-12-16T21:14:21.429Z,6.80
2018-12-16T21:16:55.953Z,6.40
2018-12-16T21:19:25.294Z,6.23
2018-12-16T21:21:53.973Z,6.87
2018-12-16T21:24:22.996Z,6.80
2018-12-16T21:26:51.668Z,6.70
2018-12-16T21:29:21.039Z,7.60
2018-12-16T21:31:50.620Z,6.67
2018-12-16T21:34:20.085Z,6.87
2018-12-16T21:36:49.222Z,6.00
2018-12-16T21:39:18.221Z,7.07
2018-12-16T21:41:48.366Z,6.97
2018-12-16T21:44:18.195Z,6.60
2018-12-16T21:46:47.099Z,7.17
2018-12-16T21:49:16.091Z,5.13
2018-12-16T21:51:45.102Z,6.83
2018-12-16T21:54:13.767Z,6.90
2018-12-16T21:56:42.663Z,6.00
2018-12-16T21:59:11.665Z,6.80
2018-12-16T22:01:40.915Z,7.53
2018-12-16T22:04:10.526Z,6.90
2018-12-16T22:06:39.761Z,6.70
2018-12-16T22:09:08.849Z,6.53
2018-12-16T22:11:37.950Z,7.23
2018-12-16T22:14:06.957Z,6.37
2018-12-16T22:16:35.927Z,6.63
2018-12-16T22:19:04.942Z,6.73
2018-12-16T22:21:33.969Z,7.90
2018-12-16T22:24:02.704Z,6.43
2018-12-16T22:26:31.287Z,7.03
2018-12-16T22:29:00.455Z,7.13
2018-12-16T22:31:29.426Z,7.20
2018-12-16T22:33:58.133Z,6.90
2018-12-16T22:36:27.113Z,7.33
2018-12-16T22:38:56.092Z,7.40
2018-12-16T22:41:25.064Z,7.13
2018-12-16T22:43:53.970Z,6.80
2018-12-16T22:46:23.018Z,7.07
2018-12-16T22:48:51.612Z,6.20
2018-12-16T22:51:20.538Z,6.67
2018-12-16T22:53:49.538Z,6.43
2018-12-16T22:56:18.543Z,6.07
2018-12-16T22:58:54.165Z,7.67
2018-12-16T23:01:18.224Z,6.47
2018-12-16T23:03:47.190Z,6.70
2018-12-16T23:06:15.908Z,5.87
2018-12-16T23:08:45.078Z,8.00
2018-12-16T23:11:14.087Z,7.07
2018-12-16T23:13:43.123Z,6.70
2018-12-16T23:16:11.798Z,6.07
2018-12-16T23:18:40.808Z,6.87
2018-12-16T23:21:11.170Z,6.43
2018-12-16T23:23:40.215Z,7.13
2018-12-16T23:26:09.538Z,6.53
2018-12-16T23:28:38.733Z,7.13
2018-12-16T23:31:07.840Z,6.30
2018-12-16T23:33:37.020Z,7.37
2018-12-16T23:36:05.719Z,7.10
2018-12-16T23:38:34.608Z,6.50
2018-12-16T23:41:03.533Z,6.77
2018-12-16T23:43:32.481Z,6.33
2018-12-16T23:46:01.550Z,7.30
2018-12-16T23:48:30.536Z,7.07
2018-12-16T23:50:59.516Z,7.37
2018-12-16T23:53:28.163Z,6.87
2018-12-16T23:55:57.150Z,6.53
2018-12-16T23:58:26.129Z,5.37
